sensor_id;sensor_type;location;lat;lon;timestamp;P1;durP1;ratioP1;P2;durP2;ratioP2
72065;SDS011;59939;52.516;13.420;2024-03-17T00:00:21;34.13;;;21.33;;
72065;SDS011;59939;52.516;13.420;2024-03-17T00:03:25;56.40;;;22.40;;
72065;SDS011;59939;52.516;13.420;2024-03-17T00:06:28;34.60;;;18.67;;
72065;SDS011;59939;52.516;13.420;2024-03-17T00:09:31;39.10;;;19.63;;
72065;SDS011;59939;52.516;13.420;2024-03-17T00:12:34;61.40;;;22.13;;
72065;SDS011;59939;52.516;13.420;2024-03-17T00:15:37;41.87;;;20.00;;
72065;SDS011;59939;52.516;13.420;2024-03-17T00:18:42;41.60;;;19.83;;
72065;SDS011;59939;52.516;13.420;2024-03-17T00:21:45;57.73;;;21.03;;
72065;SDS011;59939;52.516;13.420;2024-03-17T00:24:48;65.77;;;22.63;;
72065;SDS011;59939;52.516;13.420;2024-03-17T00:27:51;60.23;;;22.13;;
72065;SDS011;59939;52.516;13.420;2024-03-17T00:30:58;43.17;;;20.13;;
72065;SDS011;59939;52.516;13.420;2024-03-17T00:34:00;57.60;;;21.53;;
72065;SDS011;59939;52.516;13.420;2024-03-17T00:37:03;68.97;;;22.90;;
72065;SDS011;59939;52.516;13.420;2024-03-17T00:40:06;68.03;;;23.40;;
72065;SDS011;59939;52.516;13.420;2024-03-17T00:43:09;41.03;;;19.83;;
72065;SDS011;59939;52.516;13.420;2024-03-17T00:46:14;45.73;;;20.40;;
72065;SDS011;59939;52.516;13.420;2024-03-17T00:49:17;48.73;;;21.37;;
72065;SDS011;59939;52.516;13.420;2024-03-17T00:52:19;59.23;;;21.43;;
72065;SDS011;59939;52.516;13.420;2024-03-17T00:55:22;57.20;;;21.67;;
72065;SDS011;59939;52.516;13.420;2024-03-17T00:58:24;38.10;;;19.90;;
72065;SDS011;59939;52.516;13.420;2024-03-17T01:01:27;44.37;;;21.37;;
72065;SDS011;59939;52.516;13.420;2024-03-17T01:04:32;42.47;;;20.40;;
72065;SDS011;59939;52.516;13.420;2024-03-17T01:07:37;29.20;;;19.50;;
72065;SDS011;59939;52.516;13.420;2024-03-17T01:10:40;41.83;;;20.40;;
72065;SDS011;59939;52.516;13.420;2024-03-17T01:13:43;37.93;;;20.53;;
72065;SDS011;59939;52.516;13.420;2024-03-17T01:16:46;38.97;;;20.13;;
72065;SDS011;59939;52.516;13.420;2024-03-17T01:19:49;51.93;;;21.80;;
72065;SDS011;59939;52.516;13.420;2024-03-17T01:22:54;41.83;;;21.53;;
72065;SDS011;59939;52.516;13.420;2024-03-17T01:25:57;31.20;;;19.43;;
72065;SDS011;59939;52.516;13.420;2024-03-17T01:29:00;34.80;;;20.20;;
72065;SDS011;59939;52.516;13.420;2024-03-17T01:32:04;33.50;;;18.57;;
72065;SDS011;59939;52.516;13.420;2024-03-17T01:35:08;36.07;;;20.20;;
72065;SDS011;59939;52.516;13.420;2024-03-17T01:38:11;29.23;;;19.60;;
72065;SDS011;59939;52.516;13.420;2024-03-17T01:41:17;35.67;;;19.17;;
72065;SDS011;59939;52.516;13.420;2024-03-17T01:44:42;42.13;;;20.47;;
72065;SDS011;59939;52.516;13.420;2024-03-17T01:47:45;52.17;;;20.80;;
72065;SDS011;59939;52.516;13.420;2024-03-17T01:50:49;35.10;;;19.53;;
72065;SDS011;59939;52.516;13.420;2024-03-17T01:53:55;33.73;;;20.03;;
72065;SDS011;59939;52.516;13.420;2024-03-17T01:56:58;31.33;;;18.73;;
72065;SDS011;59939;52.516;13.420;2024-03-17T02:00:01;35.13;;;19.60;;
72065;SDS011;59939;52.516;13.420;2024-03-17T02:03:12;29.20;;;18.27;;
72065;SDS011;59939;52.516;13.420;2024-03-17T02:06:15;37.50;;;20.70;;
72065;SDS011;59939;52.516;13.420;2024-03-17T02:09:18;38.40;;;19.83;;
72065;SDS011;59939;52.516;13.420;2024-03-17T02:12:22;45.00;;;20.80;;
72065;SDS011;59939;52.516;13.420;2024-03-17T02:15:26;40.93;;;19.17;;
72065;SDS011;59939;52.516;13.420;2024-03-17T02:18:29;40.10;;;20.17;;
72065;SDS011;59939;52.516;13.420;2024-03-17T02:21:32;29.93;;;18.67;;
72065;SDS011;59939;52.516;13.420;2024-03-17T02:24:35;47.30;;;19.30;;
72065;SDS011;59939;52.516;13.420;2024-03-17T02:27:38;30.80;;;18.33;;
72065;SDS011;59939;52.516;13.420;2024-03-17T02:30:41;30.07;;;19.47;;
72065;SDS011;59939;52.516;13.420;2024-03-17T02:33:45;41.27;;;20.20;;
72065;SDS011;59939;52.516;13.420;2024-03-17T02:36:49;44.80;;;19.20;;
72065;SDS011;59939;52.516;13.420;2024-03-17T02:39:52;31.50;;;17.80;;
72065;SDS011;59939;52.516;13.420;2024-03-17T02:42:57;33.87;;;18.13;;
72065;SDS011;59939;52.516;13.420;2024-03-17T02:46:01;29.60;;;17.93;;
72065;SDS011;59939;52.516;13.420;2024-03-17T02:49:07;31.60;;;17.67;;
72065;SDS011;59939;52.516;13.420;2024-03-17T02:52:11;40.70;;;19.40;;
72065;SDS011;59939;52.516;13.420;2024-03-17T02:55:14;45.40;;;19.10;;
72065;SDS011;59939;52.516;13.420;2024-03-17T02:58:18;34.13;;;18.17;;
72065;SDS011;59939;52.516;13.420;2024-03-17T03:01:21;29.47;;;17.63;;
72065;SDS011;59939;52.516;13.420;2024-03-17T03:04:24;33.50;;;17.43;;
72065;SDS011;59939;52.516;13.420;2024-03-17T03:07:29;38.97;;;18.40;;
72065;SDS011;59939;52.516;13.420;2024-03-17T03:10:32;38.00;;;19.20;;
72065;SDS011;59939;52.516;13.420;2024-03-17T03:13:41;34.17;;;17.60;;
72065;SDS011;59939;52.516;13.420;2024-03-17T03:16:48;35.57;;;17.47;;
72065;SDS011;59939;52.516;13.420;2024-03-17T03:19:52;34.97;;;17.27;;
72065;SDS011;59939;52.516;13.420;2024-03-17T03:22:55;45.43;;;17.77;;
72065;SDS011;59939;52.516;13.420;2024-03-17T03:26:00;33.83;;;17.50;;
72065;SDS011;59939;52.516;13.420;2024-03-17T03:29:16;37.30;;;16.60;;
72065;SDS011;59939;52.516;13.420;2024-03-17T03:32:19;47.80;;;17.90;;
72065;SDS011;59939;52.516;13.420;2024-03-17T03:35:22;35.13;;;17.33;;
72065;SDS011;59939;52.516;13.420;2024-03-17T03:38:25;33.07;;;17.40;;
72065;SDS011;59939;52.516;13.420;2024-03-17T03:41:29;47.80;;;18.40;;
72065;SDS011;59939;52.516;13.420;2024-03-17T03:44:32;38.90;;;17.53;;
72065;SDS011;59939;52.516;13.420;2024-03-17T03:47:44;34.37;;;17.83;;
72065;SDS011;59939;52.516;13.420;2024-03-17T03:50:47;41.77;;;18.00;;
72065;SDS011;59939;52.516;13.420;2024-03-17T03:53:51;35.37;;;17.93;;
72065;SDS011;59939;52.516;13.420;2024-03-17T03:56:56;40.57;;;18.20;;
72065;SDS011;59939;52.516;13.420;2024-03-17T03:59:59;37.97;;;17.73;;
72065;SDS011;59939;52.516;13.420;2024-03-17T04:03:08;35.23;;;16.93;;
72065;SDS011;59939;52.516;13.420;2024-03-17T04:06:11;44.63;;;16.93;;
72065;SDS011;59939;52.516;13.420;2024-03-17T04:09:14;36.57;;;17.40;;
72065;SDS011;59939;52.516;13.420;2024-03-17T04:12:45;42.33;;;16.97;;
72065;SDS011;59939;52.516;13.420;2024-03-17T04:15:49;43.63;;;16.73;;
72065;SDS011;59939;52.516;13.420;2024-03-17T04:18:54;50.17;;;17.43;;
72065;SDS011;59939;52.516;13.420;2024-03-17T04:21:56;53.23;;;17.97;;
72065;SDS011;59939;52.516;13.420;2024-03-17T04:25:00;57.03;;;17.70;;
72065;SDS011;59939;52.516;13.420;2024-03-17T04:28:03;76.63;;;19.37;;
72065;SDS011;59939;52.516;13.420;2024-03-17T04:31:07;28.20;;;14.53;;
72065;SDS011;59939;52.516;13.420;2024-03-17T04:34:14;33.37;;;15.10;;
72065;SDS011;59939;52.516;13.420;2024-03-17T04:37:22;44.60;;;15.57;;
72065;SDS011;59939;52.516;13.420;2024-03-17T04:44:07;35.63;;;14.57;;
72065;SDS011;59939;52.516;13.420;2024-03-17T04:47:12;34.00;;;13.73;;
72065;SDS011;59939;52.516;13.420;2024-03-17T04:50:15;33.13;;;13.20;;
72065;SDS011;59939;52.516;13.420;2024-03-17T04:53:19;40.27;;;14.57;;
72065;SDS011;59939;52.516;13.420;2024-03-17T04:56:25;34.57;;;13.40;;
72065;SDS011;59939;52.516;13.420;2024-03-17T04:59:33;37.63;;;13.77;;
72065;SDS011;59939;52.516;13.420;2024-03-17T05:02:40;32.63;;;12.97;;
72065;SDS011;59939;52.516;13.420;2024-03-17T05:05:45;40.93;;;15.70;;
72065;SDS011;59939;52.516;13.420;2024-03-17T05:08:51;41.00;;;15.67;;
72065;SDS011;59939;52.516;13.420;2024-03-17T05:11:54;49.20;;;16.03;;
72065;SDS011;59939;52.516;13.420;2024-03-17T05:15:00;50.03;;;16.00;;
72065;SDS011;59939;52.516;13.420;2024-03-17T05:18:04;70.87;;;17.70;;
72065;SDS011;59939;52.516;13.420;2024-03-17T05:21:09;59.23;;;16.77;;
72065;SDS011;59939;52.516;13.420;2024-03-17T05:24:16;56.67;;;17.07;;
72065;SDS011;59939;52.516;13.420;2024-03-17T05:27:20;58.77;;;16.60;;
72065;SDS011;59939;52.516;13.420;2024-03-17T05:30:24;50.97;;;15.73;;
72065;SDS011;59939;52.516;13.420;2024-03-17T05:33:29;50.27;;;16.63;;
72065;SDS011;59939;52.516;13.420;2024-03-17T05:36:32;39.03;;;14.60;;
72065;SDS011;59939;52.516;13.420;2024-03-17T05:39:36;48.70;;;17.17;;
72065;SDS011;59939;52.516;13.420;2024-03-17T05:42:41;44.43;;;15.70;;
72065;SDS011;59939;52.516;13.420;2024-03-17T05:45:47;40.90;;;17.30;;
72065;SDS011;59939;52.516;13.420;2024-03-17T05:48:50;41.43;;;17.27;;
72065;SDS011;59939;52.516;13.420;2024-03-17T05:51:54;48.57;;;15.63;;
72065;SDS011;59939;52.516;13.420;2024-03-17T05:54:57;55.33;;;16.53;;
72065;SDS011;59939;52.516;13.420;2024-03-17T05:58:03;78.80;;;18.37;;
72065;SDS011;59939;52.516;13.420;2024-03-17T06:01:06;53.47;;;16.83;;
72065;SDS011;59939;52.516;13.420;2024-03-17T06:04:16;42.73;;;15.90;;
72065;SDS011;59939;52.516;13.420;2024-03-17T06:07:20;42.13;;;15.40;;
72065;SDS011;59939;52.516;13.420;2024-03-17T06:10:22;44.87;;;15.30;;
72065;SDS011;59939;52.516;13.420;2024-03-17T06:13:27;45.60;;;15.67;;
72065;SDS011;59939;52.516;13.420;2024-03-17T06:16:31;49.20;;;16.90;;
72065;SDS011;59939;52.516;13.420;2024-03-17T06:19:33;41.50;;;16.33;;
72065;SDS011;59939;52.516;13.420;2024-03-17T06:22:36;62.87;;;18.87;;
72065;SDS011;59939;52.516;13.420;2024-03-17T06:25:39;42.63;;;16.20;;
72065;SDS011;59939;52.516;13.420;2024-03-17T06:28:43;44.60;;;16.10;;
72065;SDS011;59939;52.516;13.420;2024-03-17T06:31:47;48.60;;;16.37;;
72065;SDS011;59939;52.516;13.420;2024-03-17T06:34:52;50.00;;;17.03;;
72065;SDS011;59939;52.516;13.420;2024-03-17T06:37:55;72.97;;;19.57;;
72065;SDS011;59939;52.516;13.420;2024-03-17T06:41:01;46.70;;;16.90;;
72065;SDS011;59939;52.516;13.420;2024-03-17T06:44:04;52.40;;;18.73;;
72065;SDS011;59939;52.516;13.420;2024-03-17T06:47:09;51.87;;;18.83;;
72065;SDS011;59939;52.516;13.420;2024-03-17T06:50:12;42.47;;;19.13;;
72065;SDS011;59939;52.516;13.420;2024-03-17T06:53:16;45.77;;;19.23;;
72065;SDS011;59939;52.516;13.420;2024-03-17T06:56:20;31.10;;;17.43;;
72065;SDS011;59939;52.516;13.420;2024-03-17T06:59:23;48.97;;;20.13;;
72065;SDS011;59939;52.516;13.420;2024-03-17T07:02:26;40.20;;;19.00;;
72065;SDS011;59939;52.516;13.420;2024-03-17T07:05:30;47.43;;;20.33;;
72065;SDS011;59939;52.516;13.420;2024-03-17T07:08:36;48.23;;;22.70;;
72065;SDS011;59939;52.516;13.420;2024-03-17T07:11:40;44.53;;;21.50;;
72065;SDS011;59939;52.516;13.420;2024-03-17T07:14:44;44.70;;;20.80;;
72065;SDS011;59939;52.516;13.420;2024-03-17T07:17:49;45.07;;;21.17;;
72065;SDS011;59939;52.516;13.420;2024-03-17T07:20:56;46.03;;;21.07;;
72065;SDS011;59939;52.516;13.420;2024-03-17T07:24:01;49.30;;;23.13;;
72065;SDS011;59939;52.516;13.420;2024-03-17T07:27:07;51.93;;;22.87;;
72065;SDS011;59939;52.516;13.420;2024-03-17T07:30:15;38.33;;;22.10;;
72065;SDS011;59939;52.516;13.420;2024-03-17T07:33:19;38.10;;;21.90;;
72065;SDS011;59939;52.516;13.420;2024-03-17T07:36:25;51.40;;;22.60;;
72065;SDS011;59939;52.516;13.420;2024-03-17T07:39:28;56.37;;;23.67;;
72065;SDS011;59939;52.516;13.420;2024-03-17T07:42:35;41.03;;;21.17;;
72065;SDS011;59939;52.516;13.420;2024-03-17T07:45:39;41.87;;;21.33;;
72065;SDS011;59939;52.516;13.420;2024-03-17T07:48:45;38.20;;;21.80;;
72065;SDS011;59939;52.516;13.420;2024-03-17T07:51:48;51.00;;;22.40;;
72065;SDS011;59939;52.516;13.420;2024-03-17T07:54:51;33.67;;;20.57;;
72065;SDS011;59939;52.516;13.420;2024-03-17T07:57:54;61.47;;;23.00;;
72065;SDS011;59939;52.516;13.420;2024-03-17T08:00:57;56.03;;;23.00;;
72065;SDS011;59939;52.516;13.420;2024-03-17T08:04:07;37.97;;;21.43;;
72065;SDS011;59939;52.516;13.420;2024-03-17T08:07:11;42.67;;;21.83;;
72065;SDS011;59939;52.516;13.420;2024-03-17T08:10:14;35.60;;;21.30;;
72065;SDS011;59939;52.516;13.420;2024-03-17T08:13:18;36.20;;;21.80;;
72065;SDS011;59939;52.516;13.420;2024-03-17T08:16:23;44.37;;;21.60;;
72065;SDS011;59939;52.516;13.420;2024-03-17T08:19:26;41.30;;;22.53;;
72065;SDS011;59939;52.516;13.420;2024-03-17T08:22:29;37.47;;;21.47;;
72065;SDS011;59939;52.516;13.420;2024-03-17T08:25:34;37.30;;;21.60;;
72065;SDS011;59939;52.516;13.420;2024-03-17T08:28:39;44.97;;;22.17;;
72065;SDS011;59939;52.516;13.420;2024-03-17T08:31:42;39.97;;;22.17;;
72065;SDS011;59939;52.516;13.420;2024-03-17T08:34:49;45.20;;;22.30;;
72065;SDS011;59939;52.516;13.420;2024-03-17T08:37:55;44.90;;;23.13;;
72065;SDS011;59939;52.516;13.420;2024-03-17T08:41:03;52.67;;;24.57;;
72065;SDS011;59939;52.516;13.420;2024-03-17T08:44:07;36.17;;;22.10;;
72065;SDS011;59939;52.516;13.420;2024-03-17T08:47:10;49.43;;;22.87;;
72065;SDS011;59939;52.516;13.420;2024-03-17T08:50:13;34.23;;;21.10;;
72065;SDS011;59939;52.516;13.420;2024-03-17T08:53:17;41.37;;;22.37;;
72065;SDS011;59939;52.516;13.420;2024-03-17T08:56:21;37.80;;;22.43;;
72065;SDS011;59939;52.516;13.420;2024-03-17T08:59:25;43.87;;;21.80;;
72065;SDS011;59939;52.516;13.420;2024-03-17T09:02:28;32.17;;;20.13;;
72065;SDS011;59939;52.516;13.420;2024-03-17T09:05:34;54.67;;;22.70;;
72065;SDS011;59939;52.516;13.420;2024-03-17T09:08:38;38.07;;;21.10;;
72065;SDS011;59939;52.516;13.420;2024-03-17T09:11:41;48.77;;;22.73;;
72065;SDS011;59939;52.516;13.420;2024-03-17T09:14:47;39.27;;;21.50;;
72065;SDS011;59939;52.516;13.420;2024-03-17T09:17:51;34.87;;;21.40;;
72065;SDS011;59939;52.516;13.420;2024-03-17T09:21:01;33.50;;;19.70;;
72065;SDS011;59939;52.516;13.420;2024-03-17T09:24:06;39.87;;;21.63;;
72065;SDS011;59939;52.516;13.420;2024-03-17T09:27:15;49.77;;;22.67;;
72065;SDS011;59939;52.516;13.420;2024-03-17T09:30:22;50.97;;;21.90;;
72065;SDS011;59939;52.516;13.420;2024-03-17T09:33:29;46.63;;;21.60;;
72065;SDS011;59939;52.516;13.420;2024-03-17T09:36:33;68.17;;;24.03;;
72065;SDS011;59939;52.516;13.420;2024-03-17T09:39:36;35.20;;;20.63;;
72065;SDS011;59939;52.516;13.420;2024-03-17T09:42:40;42.07;;;21.47;;
72065;SDS011;59939;52.516;13.420;2024-03-17T09:45:44;40.80;;;21.50;;
72065;SDS011;59939;52.516;13.420;2024-03-17T09:48:47;40.83;;;20.60;;
72065;SDS011;59939;52.516;13.420;2024-03-17T09:51:51;53.13;;;22.43;;
72065;SDS011;59939;52.516;13.420;2024-03-17T09:55:00;34.73;;;20.60;;
72065;SDS011;59939;52.516;13.420;2024-03-17T09:58:14;35.07;;;20.33;;
72065;SDS011;59939;52.516;13.420;2024-03-17T10:01:18;42.70;;;22.03;;
72065;SDS011;59939;52.516;13.420;2024-03-17T10:04:31;44.13;;;21.50;;
72065;SDS011;59939;52.516;13.420;2024-03-17T10:07:39;38.50;;;21.23;;
72065;SDS011;59939;52.516;13.420;2024-03-17T10:10:46;31.75;;;19.75;;
72065;SDS011;59939;52.516;13.420;2024-03-17T10:14:03;29.43;;;19.30;;
72065;SDS011;59939;52.516;13.420;2024-03-17T10:17:14;45.60;;;21.97;;
72065;SDS011;59939;52.516;13.420;2024-03-17T10:20:31;39.63;;;21.27;;
72065;SDS011;59939;52.516;13.420;2024-03-17T10:23:35;34.77;;;20.33;;
72065;SDS011;59939;52.516;13.420;2024-03-17T10:26:47;51.60;;;22.90;;
72065;SDS011;59939;52.516;13.420;2024-03-17T10:29:50;46.43;;;21.83;;
72065;SDS011;59939;52.516;13.420;2024-03-17T10:36:01;48.90;;;22.13;;
72065;SDS011;59939;52.516;13.420;2024-03-17T10:39:04;38.17;;;20.07;;
72065;SDS011;59939;52.516;13.420;2024-03-17T10:42:13;47.70;;;22.23;;
72065;SDS011;59939;52.516;13.420;2024-03-17T10:45:16;46.17;;;22.03;;
72065;SDS011;59939;52.516;13.420;2024-03-17T10:48:21;38.33;;;20.57;;
72065;SDS011;59939;52.516;13.420;2024-03-17T10:51:27;44.57;;;21.20;;
72065;SDS011;59939;52.516;13.420;2024-03-17T10:54:31;42.60;;;21.40;;
72065;SDS011;59939;52.516;13.420;2024-03-17T11:00:39;40.87;;;21.20;;
72065;SDS011;59939;52.516;13.420;2024-03-17T11:03:50;25.20;;;19.23;;
72065;SDS011;59939;52.516;13.420;2024-03-17T11:06:54;34.50;;;20.83;;
72065;SDS011;59939;52.516;13.420;2024-03-17T11:10:01;33.38;;;20.13;;
72065;SDS011;59939;52.516;13.420;2024-03-17T11:13:06;35.75;;;20.67;;
72065;SDS011;59939;52.516;13.420;2024-03-17T11:16:26;41.10;;;20.63;;
72065;SDS011;59939;52.516;13.420;2024-03-17T11:19:32;40.10;;;20.80;;
72065;SDS011;59939;52.516;13.420;2024-03-17T11:22:41;27.60;;;18.67;;
72065;SDS011;59939;52.516;13.420;2024-03-17T11:25:55;32.63;;;20.23;;
72065;SDS011;59939;52.516;13.420;2024-03-17T11:29:00;31.23;;;20.03;;
72065;SDS011;59939;52.516;13.420;2024-03-17T11:32:24;45.97;;;22.55;;
72065;SDS011;59939;52.516;13.420;2024-03-17T11:35:27;29.23;;;19.35;;
72065;SDS011;59939;52.516;13.420;2024-03-17T11:42:28;33.50;;;20.92;;
72065;SDS011;59939;52.516;13.420;2024-03-17T11:45:35;41.65;;;22.20;;
72065;SDS011;59939;52.516;13.420;2024-03-17T11:48:38;32.90;;;20.60;;
72065;SDS011;59939;52.516;13.420;2024-03-17T11:51:41;32.08;;;19.88;;
72065;SDS011;59939;52.516;13.420;2024-03-17T11:54:46;41.72;;;21.38;;
72065;SDS011;59939;52.516;13.420;2024-03-17T11:57:55;30.45;;;18.88;;
72065;SDS011;59939;52.516;13.420;2024-03-17T12:00:58;40.35;;;20.52;;
72065;SDS011;59939;52.516;13.420;2024-03-17T12:04:09;30.00;;;19.13;;
72065;SDS011;59939;52.516;13.420;2024-03-17T12:07:16;39.20;;;21.02;;
72065;SDS011;59939;52.516;13.420;2024-03-17T12:10:22;37.17;;;20.13;;
72065;SDS011;59939;52.516;13.420;2024-03-17T12:13:32;32.15;;;18.85;;
72065;SDS011;59939;52.516;13.420;2024-03-17T12:16:36;37.38;;;20.55;;
72065;SDS011;59939;52.516;13.420;2024-03-17T12:19:40;36.08;;;20.02;;
72065;SDS011;59939;52.516;13.420;2024-03-17T12:22:53;36.13;;;19.45;;
72065;SDS011;59939;52.516;13.420;2024-03-17T12:25:59;39.57;;;19.47;;
72065;SDS011;59939;52.516;13.420;2024-03-17T12:29:02;45.53;;;20.13;;
72065;SDS011;59939;52.516;13.420;2024-03-17T12:32:06;29.70;;;19.13;;
72065;SDS011;59939;52.516;13.420;2024-03-17T12:35:15;38.70;;;20.15;;
72065;SDS011;59939;52.516;13.420;2024-03-17T12:38:20;42.17;;;20.20;;
72065;SDS011;59939;52.516;13.420;2024-03-17T12:41:24;65.35;;;23.13;;
72065;SDS011;59939;52.516;13.420;2024-03-17T12:44:28;41.42;;;20.05;;
72065;SDS011;59939;52.516;13.420;2024-03-17T12:47:36;29.50;;;18.65;;
72065;SDS011;59939;52.516;13.420;2024-03-17T12:50:47;41.20;;;19.92;;
72065;SDS011;59939;52.516;13.420;2024-03-17T12:53:50;35.50;;;20.25;;
72065;SDS011;59939;52.516;13.420;2024-03-17T12:57:08;46.55;;;21.27;;
72065;SDS011;59939;52.516;13.420;2024-03-17T13:01:02;38.28;;;20.00;;
72065;SDS011;59939;52.516;13.420;2024-03-17T13:04:07;30.58;;;18.58;;
72065;SDS011;59939;52.516;13.420;2024-03-17T13:07:14;37.35;;;20.38;;
72065;SDS011;59939;52.516;13.420;2024-03-17T13:10:19;40.37;;;20.43;;
72065;SDS011;59939;52.516;13.420;2024-03-17T13:13:23;41.78;;;20.23;;
72065;SDS011;59939;52.516;13.420;2024-03-17T13:16:25;61.28;;;22.88;;
72065;SDS011;59939;52.516;13.420;2024-03-17T13:19:29;69.57;;;23.83;;
72065;SDS011;59939;52.516;13.420;2024-03-17T13:22:32;43.92;;;21.17;;
72065;SDS011;59939;52.516;13.420;2024-03-17T13:25:34;42.85;;;20.17;;
72065;SDS011;59939;52.516;13.420;2024-03-17T13:28:39;40.92;;;20.95;;
72065;SDS011;59939;52.516;13.420;2024-03-17T13:31:42;34.13;;;19.58;;
72065;SDS011;59939;52.516;13.420;2024-03-17T13:34:45;36.92;;;19.70;;
72065;SDS011;59939;52.516;13.420;2024-03-17T13:37:49;31.42;;;19.38;;
72065;SDS011;59939;52.516;13.420;2024-03-17T13:40:52;42.10;;;20.75;;
72065;SDS011;59939;52.516;13.420;2024-03-17T13:43:55;30.42;;;19.08;;
72065;SDS011;59939;52.516;13.420;2024-03-17T13:47:00;40.20;;;20.75;;
72065;SDS011;59939;52.516;13.420;2024-03-17T13:50:06;39.95;;;19.98;;
72065;SDS011;59939;52.516;13.420;2024-03-17T13:53:16;36.53;;;20.20;;
72065;SDS011;59939;52.516;13.420;2024-03-17T13:56:18;46.73;;;20.50;;
72065;SDS011;59939;52.516;13.420;2024-03-17T13:59:23;63.00;;;22.93;;
72065;SDS011;59939;52.516;13.420;2024-03-17T14:02:28;40.05;;;20.00;;
72065;SDS011;59939;52.516;13.420;2024-03-17T14:05:31;47.92;;;20.90;;
72065;SDS011;59939;52.516;13.420;2024-03-17T14:08:37;30.85;;;19.88;;
72065;SDS011;59939;52.516;13.420;2024-03-17T14:11:40;39.70;;;19.83;;
72065;SDS011;59939;52.516;13.420;2024-03-17T14:14:43;33.58;;;19.77;;
72065;SDS011;59939;52.516;13.420;2024-03-17T14:17:46;31.35;;;19.17;;
72065;SDS011;59939;52.516;13.420;2024-03-17T14:20:51;41.20;;;20.20;;
72065;SDS011;59939;52.516;13.420;2024-03-17T14:23:54;37.97;;;19.67;;
72065;SDS011;59939;52.516;13.420;2024-03-17T14:26:58;46.55;;;20.85;;
72065;SDS011;59939;52.516;13.420;2024-03-17T14:30:01;42.40;;;21.20;;
72065;SDS011;59939;52.516;13.420;2024-03-17T14:33:04;44.25;;;20.08;;
72065;SDS011;59939;52.516;13.420;2024-03-17T14:36:08;47.25;;;20.98;;
72065;SDS011;59939;52.516;13.420;2024-03-17T14:39:12;39.83;;;19.25;;
72065;SDS011;59939;52.516;13.420;2024-03-17T14:42:15;39.15;;;20.08;;
72065;SDS011;59939;52.516;13.420;2024-03-17T14:45:22;34.28;;;18.90;;
72065;SDS011;59939;52.516;13.420;2024-03-17T14:48:26;41.85;;;20.25;;
72065;SDS011;59939;52.516;13.420;2024-03-17T14:51:31;43.63;;;20.02;;
72065;SDS011;59939;52.516;13.420;2024-03-17T14:54:34;44.30;;;19.92;;
72065;SDS011;59939;52.516;13.420;2024-03-17T14:57:37;36.33;;;19.67;;
72065;SDS011;59939;52.516;13.420;2024-03-17T15:00:41;40.38;;;19.63;;
72065;SDS011;59939;52.516;13.420;2024-03-17T15:03:45;36.75;;;19.70;;
72065;SDS011;59939;52.516;13.420;2024-03-17T15:06:47;34.75;;;19.80;;
72065;SDS011;59939;52.516;13.420;2024-03-17T15:09:50;34.42;;;19.85;;
72065;SDS011;59939;52.516;13.420;2024-03-17T15:12:55;30.80;;;19.08;;
72065;SDS011;59939;52.516;13.420;2024-03-17T15:15:58;32.30;;;18.92;;
72065;SDS011;59939;52.516;13.420;2024-03-17T15:19:00;33.30;;;18.80;;
72065;SDS011;59939;52.516;13.420;2024-03-17T15:22:06;29.00;;;18.85;;
72065;SDS011;59939;52.516;13.420;2024-03-17T15:25:13;35.60;;;19.13;;
72065;SDS011;59939;52.516;13.420;2024-03-17T15:28:16;39.95;;;20.05;;
72065;SDS011;59939;52.516;13.420;2024-03-17T15:31:19;37.90;;;20.15;;
72065;SDS011;59939;52.516;13.420;2024-03-17T15:34:24;39.00;;;19.95;;
72065;SDS011;59939;52.516;13.420;2024-03-17T15:37:28;41.65;;;20.15;;
72065;SDS011;59939;52.516;13.420;2024-03-17T15:40:31;35.78;;;19.05;;
72065;SDS011;59939;52.516;13.420;2024-03-17T15:43:34;35.47;;;19.42;;
72065;SDS011;59939;52.516;13.420;2024-03-17T15:46:37;39.10;;;20.55;;
72065;SDS011;59939;52.516;13.420;2024-03-17T15:49:40;49.88;;;21.60;;
72065;SDS011;59939;52.516;13.420;2024-03-17T15:52:44;40.63;;;19.50;;
72065;SDS011;59939;52.516;13.420;2024-03-17T15:55:52;38.22;;;19.17;;
72065;SDS011;59939;52.516;13.420;2024-03-17T15:59:00;46.03;;;20.58;;
72065;SDS011;59939;52.516;13.420;2024-03-17T16:02:05;30.55;;;18.90;;
72065;SDS011;59939;52.516;13.420;2024-03-17T16:05:14;41.83;;;20.10;;
72065;SDS011;59939;52.516;13.420;2024-03-17T16:08:21;41.75;;;20.80;;
72065;SDS011;59939;52.516;13.420;2024-03-17T16:11:26;52.50;;;20.63;;
72065;SDS011;59939;52.516;13.420;2024-03-17T16:14:30;44.88;;;20.23;;
72065;SDS011;59939;52.516;13.420;2024-03-17T16:17:37;58.33;;;21.67;;
72065;SDS011;59939;52.516;13.420;2024-03-17T16:23:58;43.38;;;20.23;;
72065;SDS011;59939;52.516;13.420;2024-03-17T16:27:03;37.53;;;18.98;;
72065;SDS011;59939;52.516;13.420;2024-03-17T16:30:08;40.33;;;19.65;;
72065;SDS011;59939;52.516;13.420;2024-03-17T16:33:17;43.90;;;20.10;;
72065;SDS011;59939;52.516;13.420;2024-03-17T16:36:20;53.90;;;21.97;;
72065;SDS011;59939;52.516;13.420;2024-03-17T16:39:23;40.03;;;19.90;;
72065;SDS011;59939;52.516;13.420;2024-03-17T16:42:28;54.00;;;21.63;;
72065;SDS011;59939;52.516;13.420;2024-03-17T16:45:31;36.67;;;19.17;;
72065;SDS011;59939;52.516;13.420;2024-03-17T16:48:36;45.70;;;20.47;;
72065;SDS011;59939;52.516;13.420;2024-03-17T16:51:38;47.13;;;21.00;;
72065;SDS011;59939;52.516;13.420;2024-03-17T16:54:42;44.77;;;21.23;;
72065;SDS011;59939;52.516;13.420;2024-03-17T16:57:45;40.47;;;20.40;;
72065;SDS011;59939;52.516;13.420;2024-03-17T17:00:48;45.47;;;21.07;;
72065;SDS011;59939;52.516;13.420;2024-03-17T17:03:52;48.00;;;20.70;;
72065;SDS011;59939;52.516;13.420;2024-03-17T17:06:55;67.97;;;22.13;;
72065;SDS011;59939;52.516;13.420;2024-03-17T17:09:59;62.47;;;21.50;;
72065;SDS011;59939;52.516;13.420;2024-03-17T17:13:02;56.97;;;21.13;;
72065;SDS011;59939;52.516;13.420;2024-03-17T17:16:04;64.90;;;22.17;;
72065;SDS011;59939;52.516;13.420;2024-03-17T17:19:14;87.27;;;23.43;;
72065;SDS011;59939;52.516;13.420;2024-03-17T17:22:17;84.23;;;22.37;;
72065;SDS011;59939;52.516;13.420;2024-03-17T17:25:21;63.43;;;21.40;;
72065;SDS011;59939;52.516;13.420;2024-03-17T17:28:26;52.07;;;20.73;;
72065;SDS011;59939;52.516;13.420;2024-03-17T17:31:29;88.13;;;22.93;;
72065;SDS011;59939;52.516;13.420;2024-03-17T17:34:34;61.77;;;21.17;;
72065;SDS011;59939;52.516;13.420;2024-03-17T17:37:37;51.03;;;20.10;;
72065;SDS011;59939;52.516;13.420;2024-03-17T17:40:41;70.30;;;22.07;;
72065;SDS011;59939;52.516;13.420;2024-03-17T17:43:46;50.50;;;20.33;;
72065;SDS011;59939;52.516;13.420;2024-03-17T17:50:22;76.20;;;21.63;;
72065;SDS011;59939;52.516;13.420;2024-03-17T17:53:25;50.80;;;20.37;;
72065;SDS011;59939;52.516;13.420;2024-03-17T17:56:28;75.33;;;22.57;;
72065;SDS011;59939;52.516;13.420;2024-03-17T17:59:30;57.83;;;20.80;;
72065;SDS011;59939;52.516;13.420;2024-03-17T18:02:37;81.53;;;22.40;;
72065;SDS011;59939;52.516;13.420;2024-03-17T18:05:40;76.03;;;21.93;;